Time;durP1;ratioP1;P1;durP2;ratioP2;P2;SDS_P1;SDS_P2;PMS_P1;PMS_P2;Temp;Humidity;BMP_temperature;BMP_pressure;BME280_temperature;BME280_humidity;BME280_pressure;Samples;Min_cycle;Max_cycle;Signal;HPM_P1;HPM_P2
2024/03/26 00:02:07;;;;;;;0.50;0.40;;;5.80;80.30;;;;;;5134866;27;20070;-72
2024/03/26 00:04:33;;;;;;;0.20;0.20;;;5.80;80.40;;;;;;5099202;28;20414;-72
2024/03/26 00:06:59;;;;;;;0.20;0.20;;;5.70;80.40;;;;;;5135748;27;20034;-72
2024/03/26 00:09:24;;;;;;;0.40;0.40;;;5.70;81.00;;;;;;5117463;28;20047;-72
2024/03/26 00:11:50;;;;;;;0.90;0.40;;;5.70;80.40;;;;;;5117189;28;20035;-72
2024/03/26 00:14:16;;;;;;;0.73;0.30;;;5.80;80.40;;;;;;5135034;27;20042;-72
2024/03/26 00:16:41;;;;;;;0.38;0.38;;;5.80;80.40;;;;;;5116747;28;20039;-72
2024/03/26 00:19:07;;;;;;;0.30;0.30;;;5.80;80.50;;;;;;5116943;28;20045;-72
2024/03/26 00:21:33;;;;;;;0.30;0.30;;;5.70;80.40;;;;;;5116823;27;20039;-72
2024/03/26 00:23:59;;;;;;;0.85;0.40;;;5.70;80.40;;;;;;5079476;28;20046;-72
2024/03/26 00:26:24;;;;;;;1.30;0.60;;;5.70;80.50;;;;;;5131436;27;20401;-72
2024/03/26 00:28:51;;;;;;;0.38;0.30;;;5.70;80.50;;;;;;5134982;27;20045;-72
2024/03/26 00:31:16;;;;;;;0.40;0.30;;;5.70;80.50;;;;;;5134724;27;20077;-71
2024/03/26 00:33:42;;;;;;;0.40;0.40;;;5.60;80.50;;;;;;5116397;28;20066;-71
2024/03/26 00:36:11;;;;;;;0.30;0.30;;;5.60;80.50;;;;;;5135408;27;20428;-71
2024/03/26 00:38:38;;;;;;;1.63;0.50;;;5.70;80.50;;;;;;5116803;27;20510;-72
2024/03/26 00:41:03;;;;;;;0.30;0.30;;;5.70;80.50;;;;;;5078826;28;20402;-72
2024/03/26 00:43:29;;;;;;;0.65;0.32;;;5.60;80.50;;;;;;5112053;28;20047;-71
2024/03/26 00:45:55;;;;;;;0.55;0.38;;;5.60;80.50;;;;;;5135112;28;20042;-71
2024/03/26 00:48:21;;;;;;;0.80;0.40;;;5.60;80.50;;;;;;5134484;28;20516;-72
2024/03/26 00:50:46;;;;;;;0.80;0.50;;;5.60;80.60;;;;;;5134550;28;20037;-71
2024/03/26 00:53:12;;;;;;;1.20;0.57;;;5.70;80.70;;;;;;5116216;28;20129;-72
2024/03/26 00:55:38;;;;;;;0.52;0.40;;;5.50;80.50;;;;;;5134574;28;20045;-71
2024/03/26 00:58:04;;;;;;;0.50;0.50;;;5.60;80.60;;;;;;5097665;28;20079;-72
2024/03/26 01:00:29;;;;;;;0.30;0.30;;;5.60;80.60;;;;;;5113962;28;20122;-73
2024/03/26 01:02:55;;;;;;;1.13;0.50;;;5.50;80.50;;;;;;5098248;28;20043;-72
2024/03/26 01:05:21;;;;;;;0.63;0.40;;;5.50;80.50;;;;;;5114727;28;20035;-72
2024/03/26 01:07:48;;;;;;;0.77;0.40;;;5.50;80.60;;;;;;5134165;28;20058;-72
2024/03/26 01:10:14;;;;;;;1.60;0.60;;;5.50;80.60;;;;;;5098518;28;20475;-72
2024/03/26 01:12:40;;;;;;;0.40;0.40;;;5.60;80.70;;;;;;5133872;28;20035;-72
2024/03/26 01:15:06;;;;;;;1.38;0.70;;;5.50;80.60;;;;;;5113757;28;20039;-71
2024/03/26 01:17:32;;;;;;;0.35;0.35;;;5.50;80.60;;;;;;5134554;28;20133;-71
2024/03/26 01:19:57;;;;;;;0.75;0.60;;;5.50;80.70;;;;;;5134266;28;20397;-71
2024/03/26 01:22:24;;;;;;;1.27;0.50;;;5.50;80.60;;;;;;5114345;28;20118;-71
2024/03/26 01:24:49;;;;;;;0.50;0.45;;;5.50;80.70;;;;;;5133917;28;20035;-71
2024/03/26 01:27:16;;;;;;;0.77;0.40;;;5.50;80.70;;;;;;5115415;28;20039;-71
2024/03/26 01:29:42;;;;;;;0.35;0.35;;;5.50;80.80;;;;;;5076780;28;20047;-70
2024/03/26 01:32:08;;;;;;;0.38;0.30;;;5.40;80.70;;;;;;5108136;28;20044;-73
2024/03/26 01:34:34;;;;;;;0.45;0.45;;;5.40;80.80;;;;;;5134110;28;20066;-72
2024/03/26 01:36:59;;;;;;;0.80;0.40;;;5.40;80.80;;;;;;5115334;28;20119;-72
2024/03/26 01:39:25;;;;;;;1.80;0.60;;;5.40;80.90;;;;;;5133628;28;20461;-71
2024/03/26 01:41:51;;;;;;;0.63;0.30;;;5.40;80.90;;;;;;5133648;28;20135;-72
2024/03/26 01:44:16;;;;;;;0.50;0.40;;;5.30;80.80;;;;;;5115034;28;20108;-72
2024/03/26 01:46:42;;;;;;;0.70;0.50;;;5.40;80.80;;;;;;5114247;28;20115;-72
2024/03/26 01:49:10;;;;;;;0.77;0.40;;;5.30;80.80;;;;;;5114325;28;20039;-71
2024/03/26 01:51:40;;;;;;;0.95;0.50;;;5.30;80.80;;;;;;5113239;28;20040;-72
2024/03/26 01:54:05;;;;;;;1.52;0.50;;;5.30;80.90;;;;;;5133521;28;20117;-72
2024/03/26 01:56:32;;;;;;;0.50;0.40;;;5.30;80.90;;;;;;5114610;28;20137;-72
2024/03/26 01:58:58;;;;;;;1.80;0.40;;;5.30;80.90;;;;;;5133316;28;20054;-71
2024/03/26 02:01:27;;;;;;;0.77;0.57;;;5.30;80.90;;;;;;5096439;28;20123;-72
2024/03/26 02:03:53;;;;;;;1.45;0.70;;;5.30;80.90;;;;;;5133172;28;20047;-72
2024/03/26 02:06:19;;;;;;;1.17;0.60;;;5.30;80.90;;;;;;5114728;28;20403;-71
2024/03/26 02:08:45;;;;;;;0.57;0.55;;;5.30;80.90;;;;;;5114226;27;20042;-73
2024/03/26 02:11:11;;;;;;;0.77;0.40;;;5.30;80.90;;;;;;5114767;28;20483;-71
2024/03/26 02:13:37;;;;;;;0.50;0.50;;;5.30;80.90;;;;;;5133583;27;20043;-72
2024/03/26 02:16:03;;;;;;;2.15;0.60;;;5.30;80.90;;;;;;5133188;27;20039;-71
2024/03/26 02:18:29;;;;;;;0.52;0.50;;;5.30;80.90;;;;;;5115040;28;20402;-72
2024/03/26 02:20:54;;;;;;;1.98;0.43;;;5.30;80.90;;;;;;5132598;27;20031;-72
2024/03/26 02:23:21;;;;;;;0.30;0.30;;;5.20;80.80;;;;;;5094046;28;20173;-72
2024/03/26 02:25:47;;;;;;;0.88;0.50;;;5.30;80.90;;;;;;5113487;28;20389;-72
2024/03/26 02:28:12;;;;;;;0.65;0.35;;;5.30;80.90;;;;;;5114461;28;20043;-72
2024/03/26 02:30:38;;;;;;;0.40;0.40;;;5.30;80.90;;;;;;5114722;28;20467;-72
2024/03/26 02:33:05;;;;;;;0.55;0.47;;;5.30;80.80;;;;;;5094046;28;20046;-73
2024/03/26 02:35:31;;;;;;;1.13;0.43;;;5.30;80.80;;;;;;5033410;28;20041;-72
2024/03/26 02:37:56;;;;;;;0.32;0.30;;;5.30;80.90;;;;;;5052664;28;20048;-72
2024/03/26 02:40:22;;;;;;;0.30;0.30;;;5.30;80.90;;;;;;5053347;28;20053;-72
2024/03/26 02:42:49;;;;;;;0.30;0.30;;;5.30;80.80;;;;;;5069421;28;20519;-71
2024/03/26 02:45:15;;;;;;;0.40;0.40;;;5.30;80.90;;;;;;5069961;28;20044;-71
2024/03/26 02:47:41;;;;;;;1.60;0.40;;;5.30;80.90;;;;;;5052461;28;20036;-72
2024/03/26 02:50:07;;;;;;;0.40;0.40;;;5.30;80.90;;;;;;5052995;28;20048;-72
2024/03/26 02:52:34;;;;;;;0.55;0.22;;;5.20;80.90;;;;;;5019608;28;20036;-71
2024/03/26 02:55:00;;;;;;;0.57;0.40;;;5.30;81.00;;;;;;5070021;28;20062;-71
2024/03/26 02:57:26;;;;;;;1.27;0.40;;;5.20;80.90;;;;;;5069302;28;20127;-72
2024/03/26 02:59:51;;;;;;;0.25;0.25;;;5.20;81.00;;;;;;5035849;28;20102;-72
2024/03/26 03:02:17;;;;;;;0.63;0.30;;;5.20;81.00;;;;;;5053053;28;20052;-72
2024/03/26 03:04:42;;;;;;;1.88;0.47;;;5.20;81.00;;;;;;5052560;28;20131;-72
2024/03/26 03:07:08;;;;;;;0.55;0.47;;;5.20;81.00;;;;;;5052343;28;20044;-72
2024/03/26 03:09:34;;;;;;;0.75;0.40;;;5.20;81.10;;;;;;5052514;28;20033;-72
2024/03/26 03:11:59;;;;;;;0.43;0.40;;;5.20;81.10;;;;;;5074250;28;20151;-73
2024/03/26 03:14:25;;;;;;;0.57;0.40;;;5.30;81.30;;;;;;5089831;28;21036;-73
2024/03/26 03:16:51;;;;;;;0.60;0.50;;;5.20;81.20;;;;;;5104138;28;20105;-74
2024/03/26 03:19:17;;;;;;;0.68;0.50;;;5.20;81.30;;;;;;5093445;28;20047;-70
2024/03/26 03:21:42;;;;;;;0.77;0.50;;;5.10;81.20;;;;;;5095189;28;20043;-72
2024/03/26 03:24:08;;;;;;;0.40;0.40;;;5.20;81.30;;;;;;5112771;28;20055;-72
2024/03/26 03:26:34;;;;;;;0.95;0.50;;;5.20;81.30;;;;;;5132695;28;20039;-71
2024/03/26 03:28:59;;;;;;;0.40;0.40;;;5.10;81.30;;;;;;5113651;28;20035;-71
2024/03/26 03:31:25;;;;;;;0.30;0.30;;;5.10;81.30;;;;;;5095597;28;20032;-71
2024/03/26 03:33:51;;;;;;;0.40;0.40;;;5.10;81.30;;;;;;5132218;28;20065;-71
2024/03/26 03:36:16;;;;;;;1.17;0.50;;;5.10;81.40;;;;;;5132219;27;20075;-71
2024/03/26 03:38:42;;;;;;;0.50;0.40;;;5.10;81.40;;;;;;5135148;28;20490;-70
2024/03/26 03:41:08;;;;;;;0.30;0.30;;;5.10;81.50;;;;;;5135568;28;20085;-70
2024/03/26 03:43:34;;;;;;;0.63;0.38;;;5.10;81.50;;;;;;5115277;28;20063;-71
2024/03/26 03:46:00;;;;;;;0.30;0.30;;;5.10;81.50;;;;;;5135272;28;20050;-71
2024/03/26 03:48:25;;;;;;;0.47;0.38;;;5.00;81.50;;;;;;5135748;28;20031;-72
2024/03/26 03:50:51;;;;;;;0.70;0.50;;;5.00;81.50;;;;;;5135379;28;20482;-71
2024/03/26 03:53:17;;;;;;;0.28;0.20;;;5.10;81.50;;;;;;5135065;28;20043;-71
2024/03/26 03:55:43;;;;;;;1.33;0.28;;;5.00;81.50;;;;;;5135090;28;20039;-71
2024/03/26 03:58:10;;;;;;;1.20;0.50;;;5.00;81.50;;;;;;5115581;28;20536;-71
2024/03/26 04:00:36;;;;;;;0.55;0.30;;;5.00;81.60;;;;;;5098278;28;20043;-70
2024/03/26 04:03:02;;;;;;;0.80;0.50;;;5.00;82.20;;;;;;5099378;28;20045;-71
2024/03/26 04:05:28;;;;;;;1.02;0.40;;;5.00;81.60;;;;;;5135190;28;20092;-71
2024/03/26 04:07:54;;;;;;;1.35;0.50;;;5.00;81.60;;;;;;5135596;28;20039;-71
2024/03/26 04:10:19;;;;;;;0.98;0.50;;;4.90;81.60;;;;;;5114996;28;20036;-70
2024/03/26 04:12:45;;;;;;;0.68;0.35;;;5.00;81.60;;;;;;5135034;28;20035;-71
2024/03/26 04:15:11;;;;;;;0.38;0.30;;;4.90;81.50;;;;;;5134934;28;20394;-70
2024/03/26 04:17:37;;;;;;;0.70;0.47;;;4.90;81.50;;;;;;5117131;28;20043;-71
2024/03/26 04:20:03;;;;;;;0.95;0.50;;;4.90;81.60;;;;;;5115640;28;20082;-71
2024/03/26 04:22:29;;;;;;;0.52;0.30;;;4.90;81.60;;;;;;5115154;28;20077;-71
2024/03/26 04:24:54;;;;;;;0.52;0.30;;;4.90;81.60;;;;;;5114735;28;20051;-71
2024/03/26 04:27:20;;;;;;;0.52;0.40;;;4.90;81.70;;;;;;5134925;28;20421;-70
2024/03/26 04:29:46;;;;;;;0.80;0.38;;;4.90;81.60;;;;;;5115623;28;20035;-70
2024/03/26 04:32:12;;;;;;;0.55;0.45;;;4.90;81.70;;;;;;5134499;27;20512;-71
2024/03/26 04:34:37;;;;;;;0.30;0.30;;;4.90;81.70;;;;;;5134752;27;20144;-71
2024/03/26 04:37:04;;;;;;;0.60;0.30;;;4.80;81.70;;;;;;5095813;28;20047;-71
2024/03/26 04:39:30;;;;;;;1.42;0.52;;;4.90;81.80;;;;;;5112052;28;20097;-70
2024/03/26 04:41:56;;;;;;;0.20;0.20;;;4.80;81.70;;;;;;5134456;28;20486;-71
2024/03/26 04:44:22;;;;;;;0.88;0.40;;;4.80;81.80;;;;;;5116267;28;20470;-71
2024/03/26 04:46:48;;;;;;;0.50;0.50;;;4.70;81.70;;;;;;5116378;28;20084;-70
2024/03/26 04:49:14;;;;;;;0.75;0.50;;;4.80;81.90;;;;;;5133315;27;20031;-71
2024/03/26 04:51:40;;;;;;;1.02;0.45;;;4.70;81.90;;;;;;5098887;28;20138;-70
2024/03/26 04:54:06;;;;;;;0.40;0.40;;;4.70;82.00;;;;;;5115941;27;20050;-71
2024/03/26 04:56:31;;;;;;;0.65;0.30;;;4.70;81.90;;;;;;5134169;27;20042;-70
2024/03/26 04:58:57;;;;;;;0.57;0.30;;;4.60;82.00;;;;;;5078322;28;20039;-70
2024/03/26 05:01:23;;;;;;;0.20;0.20;;;4.60;82.00;;;;;;5112000;28;20398;-70
2024/03/26 05:03:48;;;;;;;0.30;0.30;;;4.60;82.00;;;;;;5134635;27;20043;-71
2024/03/26 05:06:14;;;;;;;0.60;0.43;;;4.60;82.10;;;;;;5116250;28;20035;-70
2024/03/26 05:08:41;;;;;;;0.73;0.40;;;4.50;82.10;;;;;;5099184;28;20035;-70
2024/03/26 05:11:07;;;;;;;0.75;0.60;;;4.60;82.20;;;;;;5116044;28;20042;-70
2024/03/26 05:13:32;;;;;;;0.80;0.50;;;4.50;82.20;;;;;;5134407;28;20050;-70
2024/03/26 05:15:59;;;;;;;0.40;0.30;;;4.50;82.30;;;;;;5134870;27;20035;-70
2024/03/26 05:18:25;;;;;;;0.45;0.30;;;4.50;82.30;;;;;;5098736;28;20148;-70
2024/03/26 05:20:51;;;;;;;0.52;0.30;;;4.50;82.40;;;;;;5115832;27;20046;-71
2024/03/26 05:23:16;;;;;;;0.32;0.30;;;4.40;82.40;;;;;;5115570;28;20039;-70
2024/03/26 05:25:42;;;;;;;0.57;0.30;;;4.40;82.40;;;;;;5134474;27;20427;-71
2024/03/26 05:28:08;;;;;;;0.43;0.30;;;4.40;82.40;;;;;;5115601;27;20035;-71
2024/03/26 05:30:34;;;;;;;0.40;0.38;;;4.40;82.40;;;;;;5116051;28;20027;-70
2024/03/26 05:33:00;;;;;;;0.32;0.30;;;4.40;82.40;;;;;;5115547;28;20039;-71
2024/03/26 05:35:25;;;;;;;0.20;0.20;;;4.40;82.40;;;;;;5115614;28;20543;-70
2024/03/26 05:37:51;;;;;;;0.73;0.32;;;4.40;82.40;;;;;;5107156;28;20047;-71
2024/03/26 05:40:17;;;;;;;0.20;0.20;;;4.30;82.40;;;;;;5133853;28;20039;-70
2024/03/26 05:42:42;;;;;;;0.55;0.47;;;4.40;82.40;;;;;;5133709;28;20047;-71
2024/03/26 05:45:09;;;;;;;0.30;0.20;;;4.40;82.40;;;;;;5133838;28;20509;-70
2024/03/26 05:47:34;;;;;;;0.30;0.30;;;4.40;82.40;;;;;;5133869;27;20031;-71
2024/03/26 05:50:00;;;;;;;0.88;0.30;;;4.40;82.30;;;;;;5134256;27;20122;-71
2024/03/26 05:52:26;;;;;;;0.55;0.30;;;4.40;82.30;;;;;;5133346;27;20561;-70
2024/03/26 05:54:52;;;;;;;0.82;0.45;;;4.40;82.20;;;;;;5133520;27;20039;-71
2024/03/26 05:57:17;;;;;;;0.68;0.43;;;4.40;82.20;;;;;;5115335;28;20039;-70
2024/03/26 05:59:43;;;;;;;0.30;0.30;;;4.50;82.30;;;;;;5133962;27;20130;-70
2024/03/26 06:02:09;;;;;;;0.77;0.32;;;4.40;82.20;;;;;;5115127;28;20038;-71
2024/03/26 06:04:34;;;;;;;1.23;0.40;;;4.40;82.20;;;;;;5113125;28;20062;-70
2024/03/26 06:07:00;;;;;;;0.20;0.20;;;4.40;82.20;;;;;;5133435;27;20042;-71
2024/03/26 06:09:26;;;;;;;1.13;0.43;;;4.50;82.30;;;;;;5133308;28;20478;-71
2024/03/26 06:11:51;;;;;;;0.43;0.43;;;4.50;82.20;;;;;;5114994;28;20088;-70
2024/03/26 06:14:17;;;;;;;0.20;0.20;;;4.50;82.10;;;;;;5114837;28;20501;-71
2024/03/26 06:16:43;;;;;;;0.55;0.40;;;4.50;82.10;;;;;;5115039;28;20074;-70
2024/03/26 06:19:09;;;;;;;0.50;0.38;;;4.60;82.10;;;;;;5133256;27;20043;-70
2024/03/26 06:21:34;;;;;;;0.88;0.50;;;4.60;82.00;;;;;;5114640;28;20065;-70
2024/03/26 06:24:00;;;;;;;0.50;0.40;;;4.60;82.60;;;;;;5132938;27;20088;-71
2024/03/26 06:26:26;;;;;;;0.55;0.35;;;4.70;81.90;;;;;;5133074;27;20039;-71
2024/03/26 06:28:51;;;;;;;1.55;0.38;;;4.70;81.90;;;;;;5132991;27;20039;-71
2024/03/26 06:31:17;;;;;;;1.98;0.60;;;4.70;81.80;;;;;;5133567;27;20062;-71
2024/03/26 06:33:43;;;;;;;0.47;0.40;;;4.80;81.70;;;;;;5114740;28;20039;-71
2024/03/26 06:36:08;;;;;;;0.52;0.50;;;4.80;81.70;;;;;;5133166;27;20531;-70
2024/03/26 06:38:34;;;;;;;0.32;0.32;;;4.80;81.60;;;;;;5114909;28;20043;-70
2024/03/26 06:41:01;;;;;;;0.63;0.40;;;4.90;81.50;;;;;;5132835;27;20043;-70
2024/03/26 06:43:26;;;;;;;0.77;0.55;;;5.00;81.50;;;;;;5132918;28;20035;-70
2024/03/26 06:45:53;;;;;;;2.15;0.70;;;5.10;81.40;;;;;;5133174;27;20603;-71
2024/03/26 06:48:19;;;;;;;0.95;0.50;;;5.10;81.20;;;;;;5132913;27;20486;-71
2024/03/26 06:50:45;;;;;;;0.85;0.50;;;5.10;81.10;;;;;;5097445;27;20035;-70
2024/03/26 06:53:11;;;;;;;0.60;0.50;;;5.20;81.10;;;;;;5133474;27;20043;-70
2024/03/26 06:55:37;;;;;;;0.60;0.30;;;5.30;81.10;;;;;;5132784;27;20046;-70
2024/03/26 06:58:03;;;;;;;0.43;0.40;;;5.30;81.00;;;;;;5114637;27;20138;-71
2024/03/26 07:00:28;;;;;;;0.45;0.40;;;5.30;81.00;;;;;;5114245;28;20130;-70
2024/03/26 07:02:57;;;;;;;1.30;0.40;;;5.40;81.00;;;;;;5132621;27;20039;-70
2024/03/26 07:05:23;;;;;;;0.30;0.30;;;5.40;80.90;;;;;;5132528;27;20039;-70
2024/03/26 07:07:49;;;;;;;0.57;0.40;;;5.40;81.10;;;;;;5132584;27;20162;-70
2024/03/26 07:10:15;;;;;;;1.23;0.40;;;5.40;80.80;;;;;;5114099;28;20059;-71
2024/03/26 07:12:40;;;;;;;0.45;0.30;;;5.50;80.80;;;;;;5134296;27;20066;-70
2024/03/26 07:15:06;;;;;;;1.75;0.52;;;5.60;80.90;;;;;;5136167;27;20039;-71
2024/03/26 07:17:32;;;;;;;0.38;0.38;;;5.60;80.80;;;;;;5135814;27;20031;-71
2024/03/26 07:19:58;;;;;;;0.77;0.50;;;5.70;80.80;;;;;;5100635;27;20108;-71
2024/03/26 07:22:24;;;;;;;0.50;0.50;;;5.70;80.70;;;;;;5100446;27;20467;-70
2024/03/26 07:24:50;;;;;;;0.77;0.55;;;5.80;80.70;;;;;;5136049;27;20477;-70
2024/03/26 07:27:16;;;;;;;0.30;0.30;;;5.80;80.60;;;;;;5118139;27;20363;-70
2024/03/26 07:29:42;;;;;;;0.32;0.30;;;5.90;80.50;;;;;;5135833;27;20046;-70
2024/03/26 07:32:08;;;;;;;0.60;0.50;;;6.00;80.40;;;;;;5117051;28;20039;-71
2024/03/26 07:34:35;;;;;;;0.35;0.35;;;6.10;80.40;;;;;;5100159;27;20084;-72
2024/03/26 07:37:01;;;;;;;0.80;0.45;;;6.20;80.30;;;;;;5117377;27;20039;-72
2024/03/26 07:39:27;;;;;;;0.55;0.50;;;6.20;80.10;;;;;;5100288;28;20047;-72
2024/03/26 07:41:53;;;;;;;0.40;0.40;;;6.40;80.00;;;;;;5136034;27;20448;-71
2024/03/26 07:44:19;;;;;;;0.40;0.40;;;6.50;79.90;;;;;;5096898;28;20043;-71
2024/03/26 07:46:45;;;;;;;1.10;0.47;;;6.50;79.80;;;;;;5134730;27;20095;-71
2024/03/26 07:49:10;;;;;;;0.85;0.50;;;6.60;79.60;;;;;;5135955;27;20043;-71
2024/03/26 07:51:37;;;;;;;0.30;0.30;;;6.70;79.60;;;;;;5099818;27;20042;-71
2024/03/26 07:54:04;;;;;;;0.40;0.40;;;6.80;79.60;;;;;;5117324;27;20039;-71
2024/03/26 07:56:29;;;;;;;0.93;0.60;;;6.90;79.50;;;;;;5117427;28;20104;-73
2024/03/26 07:58:55;;;;;;;0.65;0.43;;;6.90;79.40;;;;;;5135682;27;20493;-72
2024/03/26 08:01:21;;;;;;;0.20;0.20;;;7.00;79.30;;;;;;5135352;27;20438;-72
2024/03/26 08:03:46;;;;;;;0.50;0.50;;;7.10;79.30;;;;;;5135483;27;20490;-72
2024/03/26 08:06:12;;;;;;;1.17;0.68;;;7.20;79.20;;;;;;5117304;28;20126;-73
2024/03/26 08:08:37;;;;;;;1.02;0.47;;;7.30;79.10;;;;;;5135410;27;20039;-73
2024/03/26 08:11:03;;;;;;;1.33;0.65;;;7.40;79.00;;;;;;5116863;28;20039;-73
2024/03/26 08:13:29;;;;;;;1.13;0.60;;;7.60;78.90;;;;;;5135176;27;20058;-73
2024/03/26 08:15:55;;;;;;;1.13;0.70;;;7.70;78.80;;;;;;5135567;28;20039;-72
2024/03/26 08:18:21;;;;;;;0.28;0.28;;;7.80;78.60;;;;;;5100096;27;20043;-72
2024/03/26 08:20:46;;;;;;;1.13;0.57;;;7.90;78.60;;;;;;5116700;28;20046;-72
2024/03/26 08:23:12;;;;;;;1.35;0.70;;;8.10;78.50;;;;;;5133994;27;20460;-72
2024/03/26 08:25:38;;;;;;;0.70;0.60;;;8.10;78.10;;;;;;5116247;28;20542;-71
2024/03/26 08:28:04;;;;;;;1.40;0.55;;;8.20;78.10;;;;;;5116551;28;20097;-72
2024/03/26 08:30:29;;;;;;;0.80;0.60;;;8.30;78.20;;;;;;5135352;27;20032;-72
2024/03/26 08:32:55;;;;;;;0.98;0.60;;;8.40;78.10;;;;;;5116611;28;20084;-72
2024/03/26 08:35:21;;;;;;;1.08;0.80;;;8.40;77.90;;;;;;5116855;28;20043;-72
2024/03/26 08:37:46;;;;;;;1.13;0.60;;;8.40;77.80;;;;;;5116855;28;20045;-72
2024/03/26 08:40:12;;;;;;;1.00;0.80;;;8.50;77.80;;;;;;5134747;27;20047;-72
2024/03/26 08:42:38;;;;;;;0.82;0.70;;;8.50;77.90;;;;;;5116445;28;20043;-72
2024/03/26 08:45:06;;;;;;;1.33;0.88;;;8.60;78.00;;;;;;5132540;27;20482;-72
2024/03/26 08:47:32;;;;;;;1.58;0.50;;;8.50;78.00;;;;;;5134863;27;20042;-72
2024/03/26 08:49:58;;;;;;;0.60;0.50;;;8.50;78.10;;;;;;5116420;28;20401;-72
2024/03/26 08:52:23;;;;;;;1.08;0.68;;;8.60;78.20;;;;;;5095804;28;20035;-71
2024/03/26 08:54:49;;;;;;;1.52;0.80;;;8.60;78.20;;;;;;5115543;28;20054;-73
2024/03/26 08:57:18;;;;;;;0.80;0.50;;;8.70;78.10;;;;;;5134468;27;20172;-73
2024/03/26 08:59:44;;;;;;;1.05;0.63;;;8.70;78.10;;;;;;5116022;28;20071;-73
2024/03/26 09:02:10;;;;;;;1.35;0.90;;;8.80;78.20;;;;;;5098835;28;20050;-72
2024/03/26 09:04:36;;;;;;;0.52;0.52;;;8.80;78.10;;;;;;5098821;27;20047;-72
2024/03/26 09:07:02;;;;;;;0.98;0.50;;;8.80;78.10;;;;;;5134163;27;20039;-72
2024/03/26 09:09:28;;;;;;;0.98;0.70;;;8.80;78.00;;;;;;5098950;27;20039;-71
2024/03/26 09:11:54;;;;;;;1.70;0.80;;;9.00;78.10;;;;;;5134671;27;20502;-71
2024/03/26 09:14:20;;;;;;;0.73;0.60;;;9.00;78.00;;;;;;5115928;27;20076;-71
2024/03/26 09:16:48;;;;;;;1.70;0.63;;;9.10;77.90;;;;;;5134692;27;20478;-74
2024/03/26 09:19:15;;;;;;;1.13;0.80;;;9.20;77.90;;;;;;5099050;28;20039;-75
2024/03/26 09:21:42;;;;;;;1.52;0.90;;;9.20;77.90;;;;;;5070610;28;20507;-74
2024/03/26 09:24:08;;;;;;;0.65;0.65;;;9.20;77.80;;;;;;5068532;28;20056;-72
2024/03/26 09:26:34;;;;;;;1.20;0.85;;;9.30;77.80;;;;;;5071235;28;20044;-73
2024/03/26 09:28:59;;;;;;;0.98;0.70;;;9.30;77.80;;;;;;5051900;28;20058;-71
2024/03/26 09:31:25;;;;;;;1.02;0.70;;;9.30;77.80;;;;;;5070629;28;20050;-71
2024/03/26 09:33:51;;;;;;;1.15;0.70;;;9.40;77.80;;;;;;5053806;28;20416;-72
2024/03/26 09:36:16;;;;;;;1.48;0.93;;;9.40;77.80;;;;;;5070275;28;20047;-72
2024/03/26 09:38:42;;;;;;;1.17;0.63;;;9.40;77.70;;;;;;5070346;28;20508;-72
2024/03/26 09:41:11;;;;;;;2.00;1.10;;;9.50;77.70;;;;;;5053524;28;20083;-73
2024/03/26 09:43:37;;;;;;;1.65;0.88;;;9.50;77.60;;;;;;5070581;28;20044;-73
2024/03/26 09:46:05;;;;;;;1.40;0.90;;;9.50;77.50;;;;;;5053616;28;20040;-72
2024/03/26 09:48:31;;;;;;;0.55;0.50;;;9.60;77.60;;;;;;5054169;28;20041;-71
2024/03/26 09:50:58;;;;;;;1.40;0.98;;;9.60;77.50;;;;;;5053707;28;20040;-72
2024/03/26 09:53:26;;;;;;;0.95;0.60;;;9.70;77.50;;;;;;5054042;28;20519;-73
2024/03/26 09:55:52;;;;;;;1.20;0.80;;;9.80;77.50;;;;;;5070247;28;20057;-72
2024/03/26 09:58:18;;;;;;;1.17;0.77;;;9.80;77.40;;;;;;5081164;28;20095;-72
2024/03/26 10:00:49;;;;;;;1.52;0.75;;;9.90;77.40;;;;;;5098055;28;20505;-72
2024/03/26 10:03:20;;;;;;;1.33;0.50;;;10.10;77.40;;;;;;5133364;27;20567;-73
2024/03/26 10:05:47;;;;;;;1.63;0.70;;;10.10;77.30;;;;;;5131798;28;20038;-72
2024/03/26 10:08:13;;;;;;;0.55;0.55;;;10.10;77.20;;;;;;5113001;28;20483;-73
2024/03/26 10:10:41;;;;;;;1.95;0.73;;;10.20;77.30;;;;;;5112170;28;20092;-73
2024/03/26 10:13:10;;;;;;;1.55;0.90;;;10.20;77.30;;;;;;5132995;27;20039;-72
2024/03/26 10:15:38;;;;;;;1.42;0.80;;;10.30;77.20;;;;;;5113942;28;20050;-72
2024/03/26 10:18:05;;;;;;;1.00;0.70;;;10.30;77.20;;;;;;5133002;28;20043;-72
2024/03/26 10:20:31;;;;;;;0.70;0.70;;;10.40;77.20;;;;;;5113282;28;20105;-72
2024/03/26 10:23:00;;;;;;;1.00;0.80;;;10.40;77.00;;;;;;5114344;28;20062;-72
2024/03/26 10:25:27;;;;;;;1.65;0.73;;;10.50;77.10;;;;;;5133550;28;20027;-74
2024/03/26 10:27:55;;;;;;;1.33;0.70;;;10.60;77.00;;;;;;5114097;28;20115;-72
2024/03/26 10:30:21;;;;;;;1.00;0.70;;;10.60;76.80;;;;;;5113778;28;20081;-73
2024/03/26 10:32:48;;;;;;;1.25;0.90;;;10.60;76.80;;;;;;5132978;28;20084;-72
2024/03/26 10:35:16;;;;;;;0.52;0.52;;;10.70;76.90;;;;;;5114719;28;20031;-72
2024/03/26 10:37:43;;;;;;;0.75;0.70;;;10.70;76.80;;;;;;5114204;28;20057;-72
2024/03/26 10:40:17;;;;;;;0.68;0.63;;;10.70;76.80;;;;;;5114023;28;20036;-72
2024/03/26 10:42:50;;;;;;;1.33;0.80;;;10.80;76.80;;;;;;5133062;28;20126;-71
2024/03/26 10:45:16;;;;;;;1.23;0.60;;;10.90;76.80;;;;;;5133568;28;20039;-71
2024/03/26 10:47:43;;;;;;;0.73;0.65;;;10.90;76.70;;;;;;5115755;28;20070;-72
2024/03/26 10:50:13;;;;;;;0.93;0.80;;;11.00;76.70;;;;;;5117233;28;20039;-72
2024/03/26 10:52:40;;;;;;;0.55;0.47;;;11.00;76.70;;;;;;5136129;27;20028;-72
2024/03/26 10:55:07;;;;;;;0.73;0.60;;;11.10;76.60;;;;;;5116467;28;20039;-72
2024/03/26 10:57:34;;;;;;;0.63;0.55;;;11.10;76.50;;;;;;5136897;28;20126;-72
2024/03/26 11:00:10;;;;;;;1.65;0.80;;;11.10;76.50;;;;;;5136207;28;20050;-72
2024/03/26 11:02:39;;;;;;;1.17;0.60;;;11.20;76.50;;;;;;5118484;28;20483;-71
2024/03/26 11:05:05;;;;;;;0.47;0.47;;;11.20;76.30;;;;;;5136866;28;20482;-72
2024/03/26 11:07:36;;;;;;;0.82;0.70;;;11.30;76.30;;;;;;5118230;28;20042;-73
2024/03/26 11:10:09;;;;;;;1.15;0.60;;;11.30;76.30;;;;;;5117728;28;20099;-73
2024/03/26 11:12:36;;;;;;;0.73;0.43;;;11.30;76.20;;;;;;5136526;28;20497;-72
2024/03/26 11:15:20;;;;;;;0.40;0.40;;;11.40;76.20;;;;;;5136118;28;20035;-72
2024/03/26 11:18:04;;;;;;;0.57;0.50;;;11.50;76.20;;;;;;5136442;28;20051;-72
2024/03/26 11:20:32;;;;;;;1.05;0.60;;;11.50;76.10;;;;;;5117471;28;20088;-72
2024/03/26 11:23:01;;;;;;;1.35;0.55;;;11.60;75.90;;;;;;5135993;28;20066;-72
2024/03/26 11:25:27;;;;;;;1.05;0.63;;;11.70;75.90;;;;;;5116598;27;20062;-72
2024/03/26 11:27:54;;;;;;;0.40;0.40;;;11.70;75.80;;;;;;5135934;28;20069;-73
2024/03/26 11:30:21;;;;;;;0.88;0.55;;;11.80;75.80;;;;;;5117927;28;20608;-72
2024/03/26 11:32:49;;;;;;;0.60;0.45;;;11.90;75.70;;;;;;5116788;28;20047;-73
2024/03/26 11:35:25;;;;;;;0.50;0.50;;;11.90;75.70;;;;;;5114467;28;20125;-73
2024/03/26 11:37:52;;;;;;;1.65;0.75;;;12.00;75.50;;;;;;5135461;28;20035;-71
2024/03/26 11:40:19;;;;;;;0.47;0.47;;;12.10;75.40;;;;;;5135685;27;20039;-72
2024/03/26 11:42:49;;;;;;;0.98;0.63;;;12.10;75.30;;;;;;5116552;28;20196;-72
2024/03/26 11:45:15;;;;;;;1.85;0.50;;;12.10;75.30;;;;;;5117525;28;20054;-72
2024/03/26 11:47:41;;;;;;;1.00;0.55;;;12.20;75.40;;;;;;5135535;27;20482;-72
2024/03/26 11:50:08;;;;;;;1.35;0.60;;;12.30;75.30;;;;;;5117077;28;20042;-72
2024/03/26 11:52:34;;;;;;;0.55;0.50;;;12.40;75.30;;;;;;5117230;27;20043;-73
2024/03/26 11:55:01;;;;;;;0.75;0.60;;;12.50;74.90;;;;;;5135496;27;20047;-72
2024/03/26 11:57:29;;;;;;;0.50;0.50;;;12.70;74.80;;;;;;5135266;27;20561;-72
2024/03/26 11:59:55;;;;;;;0.50;0.50;;;12.80;74.60;;;;;;5115659;27;20127;-72
2024/03/26 12:02:20;;;;;;;0.57;0.57;;;12.80;74.30;;;;;;5117099;28;20129;-72
2024/03/26 12:04:46;;;;;;;1.05;0.70;;;12.90;74.30;;;;;;5135541;28;20107;-72
2024/03/26 12:07:15;;;;;;;0.50;0.50;;;12.90;74.10;;;;;;5100109;28;20086;-72
2024/03/26 12:09:41;;;;;;;1.05;0.50;;;12.90;74.20;;;;;;5116845;28;20031;-72
2024/03/26 12:12:10;;;;;;;0.43;0.40;;;13.00;74.30;;;;;;5135489;27;20039;-72
2024/03/26 12:14:36;;;;;;;0.77;0.60;;;13.00;74.30;;;;;;5135611;27;20043;-72
2024/03/26 12:17:03;;;;;;;0.50;0.50;;;13.10;74.40;;;;;;5135100;27;20043;-72
2024/03/26 12:19:29;;;;;;;0.85;0.70;;;13.10;74.40;;;;;;5116676;27;20043;-72
2024/03/26 12:21:56;;;;;;;1.25;0.60;;;13.10;74.30;;;;;;5116430;28;20039;-72
2024/03/26 12:24:22;;;;;;;1.55;0.70;;;13.10;74.40;;;;;;5096374;28;20047;-72
2024/03/26 12:26:50;;;;;;;1.27;0.70;;;13.10;74.50;;;;;;5116392;28;20043;-72
2024/03/26 12:29:16;;;;;;;0.50;0.50;;;13.10;74.60;;;;;;5117604;28;20131;-72
2024/03/26 12:31:42;;;;;;;0.95;0.52;;;13.00;74.70;;;;;;5135092;27;20072;-72
2024/03/26 12:34:09;;;;;;;0.75;0.52;;;13.00;74.90;;;;;;5135102;27;20050;-72
2024/03/26 12:36:36;;;;;;;0.80;0.50;;;13.00;75.00;;;;;;5134678;27;20075;-72
2024/03/26 12:39:09;;;;;;;1.08;0.50;;;13.10;75.00;;;;;;5099540;28;20039;-72
2024/03/26 12:41:35;;;;;;;0.85;0.70;;;13.20;75.00;;;;;;5134790;27;20125;-72
2024/03/26 12:44:01;;;;;;;0.50;0.50;;;13.40;74.80;;;;;;5116100;27;20478;-72
2024/03/26 12:46:28;;;;;;;0.80;0.60;;;13.60;74.60;;;;;;5134578;27;20043;-72
2024/03/26 12:48:54;;;;;;;0.82;0.70;;;13.80;74.30;;;;;;5134845;27;20405;-73
2024/03/26 12:51:20;;;;;;;0.45;0.45;;;13.80;74.00;;;;;;5116160;27;20434;-74